Aviation Digital Data Service (ADDS)

Output produced by METARs form (1807 UTC 24 June 2019)
found at http://www.aviationweather.gov/metar/data/
 
Forecast for: SBAR (ARACAJU/SANTA MA, BR)
Text: TAF SBAR 241600Z 2418/2518 14010KT 9999 FEW017 TN22/2507Z TX28/2517Z
Forecast period: 1800 to 2300 UTC 24 June 2019
Forecast type: FROM: standard forecast or significant change
Winds: from the SE (140 degrees) at 12 MPH (10 knots; 5.1 m/s)
Visibility: 6 or more miles 10+ km)
Ceiling: at least 12,000 feet AGL
Clouds: few clouds at 1700 feet AGL
Weather: no significant weather forecast for this period
Text: BECMG 2423/2501 09010KT
Forecast period: 2300 UTC 24 June 2019 to 0900 UTC 25 June 2019
Forecast type: BECOMING: Conditions expected to become as follows by 0100 UTC 25 June 2019
Winds: from the E (90 degrees) at 12 MPH (10 knots; 5.1 m/s)
Visibility: 6 or more miles 10+ km)
Ceiling: at least 12,000 feet AGL
Clouds: few clouds at 1700 feet AGL
Weather: no significant weather forecast for this period
Text: BECMG 2509/2511 14010KT RMK PEM
Forecast period: 0900 to 1800 UTC 25 June 2019
Forecast type: BECOMING: Conditions expected to become as follows by 1100 UTC 25 June 2019
Winds: from the SE (140 degrees) at 12 MPH (10 knots; 5.1 m/s)
Visibility: 6 or more miles 10+ km)
Ceiling: at least 12,000 feet AGL
Clouds: few clouds at 1700 feet AGL
Weather: no significant weather forecast for this period